Time;durP1;ratioP1;P1;durP2;ratioP2;P2;SDS_P1;SDS_P2;PMS_P1;PMS_P2;Temp;Humidity;BMP_temperature;BMP_pressure;BME280_temperature;BME280_humidity;BME280_pressure;Samples;Min_cycle;Max_cycle;Signal;HPM_P1;HPM_P2
2022/04/09 00:00:55;;;;;;;6.75;1.70;;;;;;;6.89;74.36;98617.50;4833581;29;20388;-88
2022/04/09 00:03:20;;;;;;;6.53;1.48;;;;;;;6.88;74.31;98623.81;4850254;29;20064;-88
2022/04/09 00:05:47;;;;;;;5.28;1.70;;;;;;;6.91;74.36;98628.81;4833005;29;20515;-88
2022/04/09 00:08:14;;;;;;;5.93;1.60;;;;;;;6.90;74.23;98635.13;4832729;29;20067;-88
2022/04/09 00:10:39;;;;;;;4.88;1.55;;;;;;;6.81;74.35;98644.81;4832455;29;20125;-88
2022/04/09 00:13:05;;;;;;;3.80;1.60;;;;;;;6.81;75.04;98650.13;4831983;29;20113;-88
2022/04/09 00:15:30;;;;;;;4.13;1.65;;;;;;;6.75;74.67;98650.72;4832347;29;20029;-88
2022/04/09 00:17:56;;;;;;;4.45;1.40;;;;;;;6.79;74.94;98653.91;4824404;29;20041;-88
2022/04/09 00:20:21;;;;;;;5.78;1.60;;;;;;;6.76;74.23;98660.38;4821098;29;20038;-88
2022/04/09 00:22:46;;;;;;;6.72;1.90;;;;;;;6.80;74.14;98660.91;4832104;29;20040;-88
2022/04/09 00:25:14;;;;;;;4.10;1.92;;;;;;;6.78;74.37;98670.84;4848840;29;20029;-88
2022/04/09 00:27:40;;;;;;;5.77;1.77;;;;;;;6.79;74.05;98677.84;4831600;29;20665;-88
2022/04/09 00:30:08;;;;;;;6.53;1.92;;;;;;;6.84;74.51;98672.91;4832459;29;20286;-87
2022/04/09 00:32:33;;;;;;;5.57;2.20;;;;;;;6.86;74.43;98674.44;4839632;29;20137;-88
2022/04/09 00:34:59;;;;;;;4.88;2.00;;;;;;;6.82;73.99;98682.84;4832041;29;20057;-88
2022/04/09 00:37:25;;;;;;;4.20;1.73;;;;;;;6.89;74.65;98679.47;4830975;29;20042;-88
2022/04/09 00:39:50;;;;;;;7.88;1.83;;;;;;;6.91;74.08;98696.09;4824605;29;20038;-88
2022/04/09 00:42:17;;;;;;;4.47;1.73;;;;;;;6.99;74.85;98698.03;4832766;29;20495;-88
2022/04/09 00:44:42;;;;;;;7.63;1.95;;;;;;;6.97;74.59;98693.84;4831401;29;20605;-88
2022/04/09 00:47:09;;;;;;;4.10;2.10;;;;;;;6.94;74.58;98698.47;4831252;29;20034;-88
2022/04/09 00:49:36;;;;;;;6.80;2.20;;;;;;;7.02;74.36;98699.53;4816457;29;20045;-88
2022/04/09 00:52:03;;;;;;;7.15;2.13;;;;;;;6.99;74.85;98711.31;4839161;29;20033;-88
2022/04/09 00:54:30;;;;;;;4.47;2.28;;;;;;;6.84;74.36;98724.22;4831844;29;20033;-88
2022/04/09 00:57:05;;;;;;;5.85;2.28;;;;;;;6.78;74.50;98740.75;4816736;29;20448;-88
2022/04/09 00:59:31;;;;;;;6.55;2.53;;;;;;;6.79;74.44;98733.63;4832429;29;20029;-88
2022/04/09 01:01:59;;;;;;;5.55;2.22;;;;;;;6.95;75.12;98734.69;4823369;29;20033;-88
2022/04/09 01:04:24;;;;;;;5.28;2.20;;;;;;;6.94;75.18;98740.13;4839822;29;20044;-88
2022/04/09 01:06:51;;;;;;;6.47;2.33;;;;;;;6.81;75.13;98756.41;4820282;29;20383;-88
2022/04/09 01:09:16;;;;;;;6.00;2.35;;;;;;;6.59;75.04;98754.91;4843938;29;19998;-88
2022/04/09 01:11:41;;;;;;;6.05;2.05;;;;;;;6.68;75.01;98758.53;4816454;29;20040;-88
2022/04/09 01:14:07;;;;;;;4.45;1.95;;;;;;;6.81;75.23;98771.50;4845102;29;20040;-88
2022/04/09 01:16:33;;;;;;;5.07;2.17;;;;;;;6.94;75.83;98772.03;4832166;29;20038;-88
2022/04/09 01:18:59;;;;;;;6.03;2.00;;;;;;;6.98;76.07;98780.56;4816214;29;20115;-88
2022/04/09 01:21:25;;;;;;;5.32;2.35;;;;;;;6.98;75.82;98776.06;4817675;29;20061;-88
2022/04/09 01:23:51;;;;;;;5.18;2.22;;;;;;;6.88;75.96;98786.72;4815267;29;20025;-88
2022/04/09 01:26:16;;;;;;;4.20;2.70;;;;;;;6.83;75.62;98788.16;4816522;29;20067;-88
2022/04/09 01:28:42;;;;;;;4.40;2.10;;;;;;;6.72;75.52;98799.78;4816689;29;20038;-87
2022/04/09 01:31:08;;;;;;;5.88;2.40;;;;;;;6.75;75.66;98806.63;4835619;29;20033;-88
2022/04/09 01:33:33;;;;;;;4.43;2.13;;;;;;;6.76;75.75;98808.31;4835918;29;21036;-88
2022/04/09 01:35:58;;;;;;;7.18;2.33;;;;;;;6.78;75.85;98815.16;4824747;29;20034;-88
2022/04/09 01:38:24;;;;;;;7.88;2.35;;;;;;;6.78;75.76;98819.63;4834861;29;20054;-88
2022/04/09 01:40:49;;;;;;;5.38;2.28;;;;;;;6.82;75.97;98832.47;4834610;29;20034;-87
2022/04/09 01:43:15;;;;;;;7.35;2.45;;;;;;;6.82;75.63;98828.97;4827216;29;20546;-88
2022/04/09 01:45:40;;;;;;;5.10;1.90;;;;;;;6.93;76.35;98834.97;4834455;29;20036;-88
2022/04/09 01:48:06;;;;;;;4.70;2.05;;;;;;;6.92;76.29;98830.63;4834835;29;20034;-87
2022/04/09 01:50:32;;;;;;;6.72;2.05;;;;;;;6.91;76.04;98839.59;4834795;29;20033;-88
2022/04/09 01:52:57;;;;;;;6.43;2.20;;;;;;;6.83;76.39;98843.94;4820099;29;20042;-88
2022/04/09 01:55:23;;;;;;;4.13;2.00;;;;;;;6.88;76.88;98842.53;4833816;29;20136;-88
2022/04/09 01:57:48;;;;;;;5.75;2.22;;;;;;;6.87;76.84;98859.47;4834896;29;20033;-88
2022/04/09 02:00:15;;;;;;;6.72;2.28;;;;;;;6.81;76.29;98853.88;4833836;29;20033;-88
2022/04/09 02:02:41;;;;;;;9.25;2.58;;;;;;;6.87;76.97;98854.13;4850427;29;20037;-88
2022/04/09 02:05:07;;;;;;;6.90;2.50;;;;;;;6.85;76.78;98871.22;4834712;29;20108;-88
2022/04/09 02:07:32;;;;;;;8.13;2.50;;;;;;;6.92;77.02;98867.84;4826113;29;20158;-88
2022/04/09 02:09:57;;;;;;;7.38;2.65;;;;;;;6.74;76.46;98871.34;4834606;29;20037;-87
2022/04/09 02:12:23;;;;;;;8.85;2.47;;;;;;;6.78;76.90;98884.22;4833409;29;20045;-88
2022/04/09 02:14:48;;;;;;;6.38;2.03;;;;;;;6.89;76.79;98880.56;4826603;29;20121;-88
2022/04/09 02:17:14;;;;;;;5.47;2.25;;;;;;;6.91;76.83;98870.63;4833127;29;20077;-88
2022/04/09 02:19:39;;;;;;;8.32;2.40;;;;;;;6.83;77.12;98883.78;4841778;29;20440;-88
2022/04/09 02:22:05;;;;;;;5.72;2.03;;;;;;;6.92;77.53;98881.13;4834398;29;20065;-88
2022/04/09 02:24:31;;;;;;;8.77;2.40;;;;;;;6.81;77.21;98891.06;4825114;29;20069;-88
2022/04/09 02:26:56;;;;;;;6.78;2.40;;;;;;;6.70;76.98;98883.25;4834855;29;20068;-88
2022/04/09 02:29:21;;;;;;;6.30;2.40;;;;;;;6.69;76.71;98889.53;4841162;29;20100;-88
2022/04/09 02:31:47;;;;;;;7.15;2.22;;;;;;;6.69;76.97;98893.03;4850049;29;20033;-88
2022/04/09 02:34:12;;;;;;;7.15;2.40;;;;;;;6.57;76.86;98897.63;4833195;29;20547;-88
2022/04/09 02:36:37;;;;;;;7.38;2.38;;;;;;;6.55;77.01;98904.88;4817674;29;20037;-88
2022/04/09 02:39:03;;;;;;;7.55;2.50;;;;;;;6.45;76.80;98905.84;4826010;29;20045;-88
2022/04/09 02:41:29;;;;;;;9.02;2.58;;;;;;;6.45;77.02;98905.84;4825151;29;20026;-88
2022/04/09 02:43:56;;;;;;;9.07;2.90;;;;;;;6.56;77.16;98914.53;4833917;29;20029;-88
2022/04/09 02:46:21;;;;;;;9.52;2.53;;;;;;;6.55;77.21;98920.81;4833790;29;20102;-88
2022/04/09 02:48:46;;;;;;;9.93;2.53;;;;;;;6.56;77.29;98927.81;4818072;29;20029;-88
2022/04/09 02:51:12;;;;;;;11.25;2.55;;;;;;;6.59;76.69;98927.53;4817831;29;20038;-88
2022/04/09 02:53:38;;;;;;;9.45;2.33;;;;;;;6.49;76.63;98934.66;4825911;29;20034;-88
2022/04/09 02:56:04;;;;;;;7.57;2.50;;;;;;;6.40;76.92;98945.25;4818230;29;20452;-88
2022/04/09 02:58:29;;;;;;;7.70;2.45;;;;;;;6.43;77.18;98934.38;4817007;29;20097;-88
2022/04/09 03:00:54;;;;;;;8.02;2.75;;;;;;;6.37;77.31;98946.38;4825398;29;20094;-88
2022/04/09 03:03:20;;;;;;;8.02;2.50;;;;;;;6.43;77.36;98943.16;4823342;29;20041;-88
2022/04/09 03:05:45;;;;;;;9.38;2.47;;;;;;;6.52;77.42;98949.47;4824679;29;20037;-88
2022/04/09 03:08:10;;;;;;;8.70;2.53;;;;;;;6.49;77.74;98949.75;4821341;29;20464;-88
2022/04/09 03:10:36;;;;;;;8.27;2.28;;;;;;;6.51;77.68;98953.94;4825236;29;20041;-88
2022/04/09 03:13:04;;;;;;;6.82;2.38;;;;;;;6.50;77.08;98957.56;4833410;29;20033;-88
2022/04/09 03:15:29;;;;;;;5.18;2.10;;;;;;;6.51;77.72;98959.25;4825522;29;20433;-88
2022/04/09 03:17:54;;;;;;;6.68;2.33;;;;;;;6.47;77.87;98963.16;4833462;29;20049;-88
2022/04/09 03:20:20;;;;;;;8.23;2.28;;;;;;;6.56;77.57;98961.50;4818329;29;20098;-88
2022/04/09 03:22:48;;;;;;;5.93;2.10;;;;;;;6.59;77.79;98966.53;4818602;29;20094;-89
2022/04/09 03:25:14;;;;;;;10.57;2.42;;;;;;;6.68;78.33;98967.56;4833029;29;20033;-88
2022/04/09 03:27:39;;;;;;;9.43;2.28;;;;;;;6.69;78.13;98967.41;4832662;29;20360;-88
2022/04/09 03:30:08;;;;;;;7.40;2.10;;;;;;;6.87;79.09;98973.72;4831459;29;20045;-88
2022/04/09 03:32:38;;;;;;;10.70;3.03;;;;;;;6.74;78.16;98985.59;4824972;29;20026;-88
2022/04/09 03:35:07;;;;;;;11.13;2.85;;;;;;;6.40;78.14;98991.25;4817632;29;20026;-88
2022/04/09 03:37:36;;;;;;;11.95;2.15;;;;;;;6.52;78.04;98992.81;4840154;29;20455;-88
2022/04/09 03:40:06;;;;;;;8.20;2.50;;;;;;;6.54;78.70;98996.16;4817419;29;20057;-89
2022/04/09 03:42:32;;;;;;;8.73;2.22;;;;;;;6.67;78.72;99000.41;4832084;29;20044;-86
2022/04/09 03:44:57;;;;;;;10.95;2.03;;;;;;;6.57;78.53;99003.84;4832622;29;20029;-86
2022/04/09 03:47:23;;;;;;;8.43;2.08;;;;;;;6.68;78.92;99007.41;4821996;29;20076;-86
2022/04/09 03:49:48;;;;;;;7.18;2.10;;;;;;;6.78;79.24;99013.56;4818163;29;20026;-86
2022/04/09 03:52:13;;;;;;;7.63;1.90;;;;;;;6.55;78.29;99015.59;4832603;29;20140;-86
2022/04/09 03:54:39;;;;;;;9.48;2.30;;;;;;;6.46;78.18;99019.06;4832112;29;20026;-86
2022/04/09 03:57:05;;;;;;;9.45;2.10;;;;;;;6.35;77.72;99021.81;4832430;29;20040;-86
2022/04/09 03:59:30;;;;;;;9.35;1.92;;;;;;;6.20;77.86;99035.47;4817556;29;20102;-86
2022/04/09 04:01:55;;;;;;;9.43;2.08;;;;;;;6.08;78.15;99033.84;4824094;29;20084;-86
2022/04/09 04:04:21;;;;;;;7.85;2.13;;;;;;;6.22;78.35;99033.53;4817673;29;20081;-85
2022/04/09 04:06:48;;;;;;;7.85;2.03;;;;;;;6.33;78.41;99037.88;4818519;29;20099;-86
2022/04/09 04:09:14;;;;;;;10.63;2.10;;;;;;;6.22;78.16;99043.31;4833758;29;20034;-86
2022/04/09 04:11:40;;;;;;;9.05;2.35;;;;;;;6.23;78.10;99039.66;4833360;29;20057;-86
2022/04/09 04:14:06;;;;;;;6.25;2.45;;;;;;;6.23;78.34;99059.09;4832733;29;20060;-87
2022/04/09 04:16:31;;;;;;;10.68;2.70;;;;;;;6.20;78.30;99055.88;4816207;29;20034;-87
2022/04/09 04:18:56;;;;;;;8.45;2.22;;;;;;;6.25;78.03;99058.97;4831684;29;20029;-86
2022/04/09 04:21:22;;;;;;;7.18;2.30;;;;;;;6.38;78.32;99058.72;4823000;29;20034;-92
2022/04/09 04:23:47;;;;;;;9.13;2.42;;;;;;;6.37;78.25;99062.34;4834782;29;20633;-92
2022/04/09 04:26:12;;;;;;;11.10;2.20;;;;;;;6.34;78.25;99071.44;4817658;29;20073;-93
2022/04/09 04:28:38;;;;;;;7.10;2.45;;;;;;;6.38;78.22;99078.16;4816796;29;20034;-93
2022/04/09 04:31:04;;;;;;;11.07;2.42;;;;;;;6.31;77.95;99071.69;4817971;29;20057;-92
2022/04/09 04:33:29;;;;;;;10.15;2.33;;;;;;;6.29;78.03;99073.66;4817434;29;20037;-93
2022/04/09 04:35:55;;;;;;;9.30;2.47;;;;;;;6.41;78.36;99087.66;4831873;29;20037;-93
2022/04/09 04:38:23;;;;;;;6.50;2.40;;;;;;;6.38;78.34;99087.94;4817081;29;20029;-93
2022/04/09 04:40:48;;;;;;;8.83;2.83;;;;;;;6.34;78.43;99092.66;4855048;29;20033;-93
2022/04/09 04:43:14;;;;;;;8.73;2.70;;;;;;;6.25;78.00;99096.13;4817125;29;20300;-92
2022/04/09 04:45:39;;;;;;;5.78;2.70;;;;;;;6.19;78.41;99107.28;4822724;29;20033;-92
2022/04/09 04:48:05;;;;;;;11.25;2.78;;;;;;;6.22;78.09;99099.88;4817767;29;20125;-93
2022/04/09 04:50:30;;;;;;;5.72;2.35;;;;;;;6.38;79.09;99109.19;4817749;29;20025;-93
2022/04/09 04:52:55;;;;;;;10.07;2.88;;;;;;;6.54;79.33;99106.88;4816675;29;20421;-93
2022/04/09 04:55:22;;;;;;;8.55;3.00;;;;;;;6.42;78.70;99114.09;4821308;29;20068;-93
2022/04/09 04:57:51;;;;;;;9.55;2.78;;;;;;;6.49;78.63;99117.91;4822969;29;20483;-93
2022/04/09 05:00:19;;;;;;;10.10;2.92;;;;;;;6.53;79.37;99129.94;4831803;29;20048;-92
2022/04/09 05:02:44;;;;;;;9.13;2.97;;;;;;;6.40;78.54;99139.09;4818811;29;20659;-92
2022/04/09 05:05:09;;;;;;;10.45;2.53;;;;;;;6.32;78.70;99137.09;4839550;29;20052;-93
2022/04/09 05:07:42;;;;;;;10.75;2.80;;;;;;;6.44;78.89;99133.38;4816656;29;20054;-92
2022/04/09 05:10:09;;;;;;;8.93;2.63;;;;;;;6.47;78.52;99145.56;4838692;29;20057;-92
2022/04/09 05:12:35;;;;;;;8.35;2.42;;;;;;;6.47;79.29;99148.22;4839581;29;20037;-92
2022/04/09 05:15:02;;;;;;;7.40;2.55;;;;;;;6.53;79.52;99147.69;4831605;29;20034;-91
2022/04/09 05:17:27;;;;;;;8.13;2.47;;;;;;;6.40;78.76;99155.88;4839871;29;20531;-91
2022/04/09 05:19:53;;;;;;;6.65;2.47;;;;;;;6.29;78.93;99159.44;4821879;29;20045;-92
2022/04/09 05:22:18;;;;;;;9.02;2.75;;;;;;;6.20;78.71;99160.22;4831461;29;20045;-91
2022/04/09 05:24:43;;;;;;;7.63;2.47;;;;;;;6.18;78.64;99169.28;4817074;29;20522;-91
2022/04/09 05:27:09;;;;;;;4.43;2.08;;;;;;;6.17;78.85;99164.97;4830051;29;20383;-91
2022/04/09 05:29:34;;;;;;;7.82;2.40;;;;;;;6.16;79.01;99165.94;4819499;29;20034;-91
2022/04/09 05:32:00;;;;;;;7.10;2.60;;;;;;;6.12;79.22;99169.78;4821134;29;20472;-91
2022/04/09 05:34:25;;;;;;;7.88;2.30;;;;;;;6.09;79.00;99164.72;4815759;29;20029;-91
2022/04/09 05:36:50;;;;;;;8.20;2.58;;;;;;;6.10;79.36;99177.88;4830422;29;20493;-92
2022/04/09 05:39:17;;;;;;;9.07;2.70;;;;;;;6.07;79.01;99177.28;4818487;29;20049;-92
2022/04/09 05:41:42;;;;;;;7.95;2.83;;;;;;;6.05;78.50;99181.88;4822939;29;20658;-91
2022/04/09 05:44:08;;;;;;;11.38;2.80;;;;;;;6.05;79.06;99189.84;4830871;29;20034;-91
2022/04/09 05:46:33;;;;;;;12.43;2.63;;;;;;;6.09;79.17;99188.63;4838202;29;20085;-91
2022/04/09 05:48:58;;;;;;;11.65;2.58;;;;;;;6.08;79.01;99193.09;4831613;29;20041;-91
2022/04/09 05:51:24;;;;;;;8.52;2.20;;;;;;;6.06;79.09;99196.84;4829944;29;20437;-91
2022/04/09 05:53:50;;;;;;;8.52;2.50;;;;;;;6.10;79.33;99206.22;4822056;29;20523;-91
2022/04/09 05:56:15;;;;;;;8.82;2.80;;;;;;;6.08;79.15;99201.03;4822781;29;20152;-91
2022/04/09 05:58:42;;;;;;;10.05;2.50;;;;;;;6.08;79.23;99203.69;4815512;29;20423;-91
2022/04/09 06:01:07;;;;;;;10.60;2.47;;;;;;;6.02;79.66;99214.84;4815092;29;20073;-91
2022/04/09 06:03:33;;;;;;;9.60;2.90;;;;;;;6.10;79.67;99219.50;4814586;29;20101;-91
2022/04/09 06:05:58;;;;;;;9.02;2.30;;;;;;;6.09;79.42;99223.97;4821578;29;20048;-92
2022/04/09 06:08:23;;;;;;;7.63;2.40;;;;;;;6.05;79.42;99227.84;4815151;29;20054;-92
2022/04/09 06:10:49;;;;;;;8.45;2.35;;;;;;;6.07;79.76;99231.22;4816253;29;20444;-91
2022/04/09 06:13:15;;;;;;;6.70;2.22;;;;;;;6.10;80.08;99232.78;4818909;29;20033;-91
2022/04/09 06:15:41;;;;;;;13.88;2.72;;;;;;;6.15;79.79;99234.09;4832209;29;20034;-91
2022/04/09 06:18:07;;;;;;;7.15;2.30;;;;;;;6.18;79.82;99235.66;4818937;29;20082;-91
2022/04/09 06:20:34;;;;;;;7.43;2.35;;;;;;;6.18;79.66;99239.16;4825707;29;20041;-91
2022/04/09 06:22:59;;;;;;;9.55;2.33;;;;;;;6.16;79.57;99233.13;4818813;29;20162;-91
2022/04/09 06:25:25;;;;;;;8.55;2.20;;;;;;;6.19;79.96;99250.63;4825097;29;20596;-91
2022/04/09 06:27:51;;;;;;;7.95;2.30;;;;;;;6.20;80.17;99257.59;4832268;29;20030;-92
2022/04/09 06:30:16;;;;;;;7.20;2.10;;;;;;;6.19;79.62;99254.09;4825173;29;20029;-91
2022/04/09 06:32:41;;;;;;;6.40;1.98;;;;;;;6.18;79.74;99255.06;4820237;29;20491;-92
2022/04/09 06:35:07;;;;;;;8.32;2.13;;;;;;;6.18;79.53;99263.03;4817942;29;20040;-91
2022/04/09 06:37:36;;;;;;;9.68;2.40;;;;;;;6.19;79.56;99266.53;4821650;29;20037;-92
2022/04/09 06:40:01;;;;;;;;;;;;;;;6.18;79.85;99270.16;4817871;29;20069;-91
2022/04/09 06:42:27;;;;;;;6.65;1.83;;;;;;;6.26;79.69;99275.69;4833504;29;19959;-91
2022/04/09 06:44:52;;;;;;;9.77;2.17;;;;;;;6.26;79.54;99279.16;4849072;29;20380;-92
2022/04/09 06:47:18;;;;;;;11.48;2.40;;;;;;;6.23;79.98;99281.25;4833984;29;20083;-92
2022/04/09 06:49:43;;;;;;;10.93;2.30;;;;;;;6.33;80.04;99287.47;4822665;29;20035;-92
2022/04/09 06:52:08;;;;;;;9.40;2.58;;;;;;;6.31;80.16;99292.06;4833271;29;20033;-92
2022/04/09 06:54:34;;;;;;;8.23;2.80;;;;;;;6.37;79.81;99293.38;4818398;29;20041;-91
2022/04/09 06:56:59;;;;;;;8.32;2.33;;;;;;;6.41;79.89;99290.31;4819370;29;20128;-91
2022/04/09 06:59:24;;;;;;;7.90;2.10;;;;;;;6.43;79.79;99306.97;4818039;29;20144;-91
2022/04/09 07:01:50;;;;;;;7.63;2.20;;;;;;;6.43;80.37;99306.13;4823350;29;20088;-91
2022/04/09 07:04:16;;;;;;;8.55;2.47;;;;;;;6.45;80.47;99305.03;4824585;29;20056;-91
2022/04/09 07:06:44;;;;;;;12.52;2.10;;;;;;;6.48;80.12;99307.44;4817692;29;20062;-91
2022/04/09 07:09:09;;;;;;;8.57;2.10;;;;;;;6.53;79.85;99321.16;4830438;29;20116;-91
2022/04/09 07:11:35;;;;;;;11.10;2.55;;;;;;;6.58;80.16;99326.09;4839574;29;20502;-92
2022/04/09 07:14:00;;;;;;;6.55;2.28;;;;;;;6.55;80.63;99337.81;4822761;29;20442;-91
2022/04/09 07:16:25;;;;;;;14.05;2.63;;;;;;;6.55;80.01;99340.47;4832464;29;20056;-92
2022/04/09 07:18:51;;;;;;;9.13;2.38;;;;;;;6.56;80.13;99328.88;4824080;29;20029;-91
2022/04/09 07:21:16;;;;;;;7.63;2.67;;;;;;;6.52;80.56;99340.72;4832545;29;20099;-91
2022/04/09 07:23:42;;;;;;;8.23;2.65;;;;;;;6.48;80.80;99347.25;4831892;29;20082;-91
2022/04/09 07:26:07;;;;;;;8.65;2.47;;;;;;;6.44;80.72;99351.16;4821144;29;20515;-91
2022/04/09 07:28:33;;;;;;;9.40;2.45;;;;;;;6.41;81.42;99358.53;4816569;29;20152;-90
2022/04/09 07:30:58;;;;;;;5.68;2.00;;;;;;;6.44;80.79;99353.81;4831221;29;20034;-91
2022/04/09 07:33:23;;;;;;;8.20;2.40;;;;;;;6.46;81.03;99362.47;4832497;29;20097;-91
2022/04/09 07:35:49;;;;;;;9.27;2.53;;;;;;;6.51;80.59;99357.63;4816876;29;20029;-91
2022/04/09 07:38:14;;;;;;;9.20;2.58;;;;;;;6.56;81.11;99368.72;4832269;29;20025;-92
2022/04/09 07:40:40;;;;;;;9.50;2.35;;;;;;;6.59;80.72;99370.28;4817601;29;20093;-91
2022/04/09 07:43:05;;;;;;;7.50;2.42;;;;;;;6.64;80.58;99370.75;4818262;29;20053;-92
2022/04/09 07:45:31;;;;;;;7.10;2.17;;;;;;;6.62;80.31;99373.53;4833678;29;20040;-92
2022/04/09 07:47:58;;;;;;;6.65;2.22;;;;;;;6.60;80.38;99378.13;4815321;29;20029;-92
2022/04/09 07:50:25;;;;;;;7.15;2.10;;;;;;;6.57;80.91;99375.72;4815504;29;20025;-92
2022/04/09 07:52:51;;;;;;;5.05;1.95;;;;;;;6.54;80.85;99385.75;4839743;29;20629;-92
2022/04/09 07:55:16;;;;;;;5.63;1.90;;;;;;;6.50;80.78;99394.94;4819307;29;20149;-92
2022/04/09 07:57:47;;;;;;;8.93;2.00;;;;;;;6.53;80.65;99389.38;4832127;29;20033;-91
2022/04/09 08:00:14;;;;;;;4.20;1.55;;;;;;;6.51;81.46;99391.31;4823775;29;20037;-92
2022/04/09 08:02:39;;;;;;;3.80;1.30;;;;;;;6.45;81.65;99394.47;4817613;29;20074;-92
2022/04/09 08:05:05;;;;;;;4.97;1.20;;;;;;;6.49;81.03;99395.91;4815388;29;20029;-92
2022/04/09 08:07:30;;;;;;;4.97;1.40;;;;;;;6.54;81.31;99401.69;4831527;29;20054;-92
2022/04/09 08:09:56;;;;;;;5.25;1.77;;;;;;;6.58;81.81;99403.13;4855056;29;20366;-92
2022/04/09 08:12:22;;;;;;;5.22;1.50;;;;;;;6.57;81.05;99401.44;4815199;29;20124;-92
2022/04/09 08:14:47;;;;;;;5.22;1.65;;;;;;;6.58;81.23;99408.44;4831738;29;20053;-92
2022/04/09 08:17:13;;;;;;;4.65;2.20;;;;;;;6.65;81.62;99401.66;4816567;29;20037;-92
2022/04/09 08:19:39;;;;;;;5.13;2.35;;;;;;;6.65;81.66;99406.97;4831881;29;20079;-92
2022/04/09 08:22:05;;;;;;;5.22;2.08;;;;;;;6.61;81.66;99402.88;4830654;29;20418;-92
2022/04/09 08:24:31;;;;;;;7.25;2.10;;;;;;;6.58;81.45;99406.63;4817015;29;20045;-92
2022/04/09 08:26:56;;;;;;;5.55;1.83;;;;;;;6.65;81.45;99406.97;4830335;29;20097;-92
2022/04/09 08:29:23;;;;;;;4.43;1.98;;;;;;;6.65;80.97;99412.28;4832215;29;20108;-92
2022/04/09 08:31:48;;;;;;;7.15;2.30;;;;;;;6.61;81.34;99416.16;4815762;29;20034;-92
2022/04/09 08:34:14;;;;;;;7.05;2.20;;;;;;;6.64;81.22;99418.56;4821495;29;20034;-91
2022/04/09 08:36:39;;;;;;;6.88;2.20;;;;;;;6.65;81.37;99420.28;4830512;29;20647;-92
2022/04/09 08:39:05;;;;;;;8.55;2.00;;;;;;;6.66;81.21;99421.13;4815163;29;20081;-92
2022/04/09 08:41:31;;;;;;;7.90;2.45;;;;;;;6.69;81.70;99418.19;4819977;29;20148;-92
2022/04/09 08:43:56;;;;;;;8.50;2.17;;;;;;;6.74;81.67;99424.81;4838428;29;20040;-92
2022/04/09 08:46:22;;;;;;;9.85;2.67;;;;;;;6.76;81.49;99427.34;4815543;29;20112;-92
2022/04/09 08:48:49;;;;;;;9.77;3.10;;;;;;;6.78;81.75;99418.28;4838932;29;20596;-92
2022/04/09 08:51:14;;;;;;;8.13;2.50;;;;;;;6.80;82.17;99426.13;4816446;29;20093;-92
2022/04/09 08:53:40;;;;;;;11.65;2.70;;;;;;;6.86;81.98;99431.75;4815782;29;20025;-92
2022/04/09 08:56:06;;;;;;;7.55;2.38;;;;;;;6.85;81.18;99419.44;4830865;29;20041;-92
2022/04/09 08:58:31;;;;;;;14.32;3.00;;;;;;;6.86;81.58;99426.44;4815250;29;20037;-92
2022/04/09 09:00:57;;;;;;;7.00;2.28;;;;;;;6.90;80.94;99419.06;4815810;29;20037;-92
2022/04/09 09:03:23;;;;;;;8.07;2.00;;;;;;;6.91;81.20;99429.56;4814717;29;20045;-92
2022/04/09 09:05:52;;;;;;;5.30;2.08;;;;;;;6.92;80.10;99417.97;4837929;29;20117;-91
2022/04/09 09:08:17;;;;;;;;;;;;;;;7.00;80.50;99417.31;4816380;29;20524;-92
2022/04/09 09:10:43;;;;;;;6.95;2.45;;;;;;;7.04;80.17;99420.56;4823445;29;19995;-92
2022/04/09 09:13:10;;;;;;;6.57;2.10;;;;;;;7.05;79.79;99416.94;4815617;29;20043;-92
2022/04/09 09:15:52;;;;;;;7.85;1.80;;;;;;;7.05;79.47;99425.75;4823268;29;20116;-92
2022/04/09 09:18:22;;;;;;;6.75;1.77;;;;;;;7.06;77.17;99432.75;4821534;29;20452;-92
2022/04/09 09:20:57;;;;;;;6.20;1.48;;;;;;;7.05;76.65;99431.06;4822615;29;20034;-92
2022/04/09 09:23:23;;;;;;;7.18;1.63;;;;;;;7.06;75.14;99427.44;4837810;29;20082;-92
2022/04/09 09:25:54;;;;;;;4.35;1.50;;;;;;;7.12;75.21;99426.94;4823852;29;20041;-92
2022/04/09 09:28:27;;;;;;;6.60;1.55;;;;;;;7.18;74.90;99423.78;4832053;29;20701;-92
2022/04/09 09:30:54;;;;;;;6.63;1.98;;;;;;;7.28;75.05;99423.00;4838146;29;20026;-92
2022/04/09 09:33:20;;;;;;;6.82;1.65;;;;;;;7.29;74.75;99438.81;4830816;29;20460;-92
2022/04/09 09:35:56;;;;;;;6.78;1.75;;;;;;;7.28;73.90;99436.28;4822802;29;20052;-92
2022/04/09 09:38:33;;;;;;;10.05;1.77;;;;;;;7.18;71.25;99434.41;4815262;29;20026;-92
2022/04/09 09:41:01;;;;;;;8.38;1.90;;;;;;;7.12;70.52;99447.38;4822611;29;20059;-92
2022/04/09 09:43:26;;;;;;;7.22;1.55;;;;;;;7.12;70.78;99452.69;4816279;29;20040;-93
2022/04/09 09:45:53;;;;;;;5.32;1.50;;;;;;;7.21;71.84;99447.44;4819524;29;20030;-92
2022/04/09 09:48:27;;;;;;;4.30;1.50;;;;;;;7.22;72.08;99437.66;4830211;29;20026;-92
2022/04/09 09:50:56;;;;;;;5.40;1.30;;;;;;;7.22;71.61;99449.13;4825299;29;20116;-93
2022/04/09 09:53:31;;;;;;;5.90;1.80;;;;;;;7.28;71.44;99441.59;4826199;29;20029;-92
2022/04/09 09:55:56;;;;;;;6.93;1.42;;;;;;;7.34;71.33;99449.91;4818887;29;20112;-92
2022/04/09 09:58:23;;;;;;;6.45;1.38;;;;;;;7.36;70.98;99437.31;4834370;29;20105;-92
2022/04/09 10:00:49;;;;;;;9.50;1.63;;;;;;;7.43;70.67;99440.28;4819795;29;20085;-92
2022/04/09 10:03:14;;;;;;;5.68;1.45;;;;;;;7.48;69.45;99440.75;4841539;29;20455;-92
2022/04/09 10:05:40;;;;;;;9.20;1.60;;;;;;;7.52;70.10;99426.19;4833618;29;20041;-92
2022/04/09 10:08:07;;;;;;;3.83;1.48;;;;;;;7.54;70.53;99433.06;4818474;29;20054;-92
2022/04/09 10:10:37;;;;;;;9.43;1.80;;;;;;;7.56;70.87;99432.94;4825290;29;20038;-92
2022/04/09 10:13:06;;;;;;;6.30;1.60;;;;;;;7.58;70.87;99433.69;4818473;29;20030;-92
2022/04/09 10:15:32;;;;;;;4.35;1.30;;;;;;;7.55;70.13;99434.75;4818814;29;20101;-92
2022/04/09 10:17:58;;;;;;;9.60;1.38;;;;;;;7.55;70.12;99440.09;4834216;29;20132;-92
2022/04/09 10:20:25;;;;;;;5.05;1.40;;;;;;;7.59;70.61;99435.38;4821466;29;20034;-92
2022/04/09 10:22:56;;;;;;;6.60;1.63;;;;;;;7.65;70.26;99436.66;4833083;29;20030;-92
2022/04/09 10:25:25;;;;;;;5.80;1.90;;;;;;;7.63;68.71;99441.28;4840966;29;20097;-92
2022/04/09 10:27:53;;;;;;;5.28;1.65;;;;;;;7.59;67.41;99424.72;4819551;29;20129;-92
2022/04/09 10:30:19;;;;;;;3.35;1.17;;;;;;;7.59;68.25;99438.03;4834269;29;20029;-92
2022/04/09 10:32:48;;;;;;;4.97;1.40;;;;;;;7.63;68.43;99426.16;4833582;29;20097;-92
2022/04/09 10:35:40;;;;;;;7.88;1.95;;;;;;;7.61;68.03;99433.41;4833765;29;20033;-92
2022/04/09 10:38:15;;;;;;;4.43;1.70;;;;;;;7.67;68.71;99424.91;4825596;29;20033;-92
2022/04/09 10:40:43;;;;;;;5.70;1.90;;;;;;;7.76;68.73;99431.25;4833259;29;20144;-92
2022/04/09 10:43:09;;;;;;;5.05;1.90;;;;;;;7.80;68.05;99427.34;4841004;29;20483;-92
2022/04/09 10:46:06;;;;;;;5.60;1.50;;;;;;;7.82;68.92;99428.88;4824838;29;20048;-92
2022/04/09 10:48:31;;;;;;;3.83;1.60;;;;;;;7.80;68.86;99432.66;4855482;29;20744;-92
2022/04/09 10:50:57;;;;;;;5.20;1.90;;;;;;;7.76;68.49;99428.59;4834093;29;20018;-92
2022/04/09 10:53:25;;;;;;;5.00;1.98;;;;;;;7.72;68.37;99441.31;4824841;29;20069;-92
2022/04/09 10:56:27;;;;;;;5.63;1.83;;;;;;;7.72;67.99;99443.97;4825412;29;20056;-92
2022/04/09 10:59:12;;;;;;;5.85;2.00;;;;;;;7.78;68.71;99435.47;4841132;29;20079;-92
2022/04/09 11:01:46;;;;;;;6.45;1.95;;;;;;;7.87;68.33;99429.34;4832771;29;20037;-92
2022/04/09 11:04:34;;;;;;;5.47;2.00;;;;;;;7.95;68.31;99428.66;4832001;29;20144;-92
2022/04/09 11:07:14;;;;;;;6.88;1.58;;;;;;;7.97;67.83;99432.03;4848439;29;20053;-92
2022/04/09 11:09:59;;;;;;;4.97;2.08;;;;;;;7.97;69.17;99431.19;4833297;29;20043;-92
2022/04/09 11:12:37;;;;;;;5.53;2.10;;;;;;;8.03;68.79;99418.16;4839957;29;20033;-92
2022/04/09 11:15:15;;;;;;;4.47;1.60;;;;;;;8.10;69.17;99418.50;4840113;29;20049;-93
2022/04/09 11:17:45;;;;;;;5.22;1.95;;;;;;;8.11;69.67;99422.84;4833405;29;20189;-92
2022/04/09 11:20:12;;;;;;;5.38;1.75;;;;;;;8.12;68.92;99425.38;4839886;29;20021;-92
2022/04/09 11:22:39;;;;;;;4.00;1.70;;;;;;;8.17;68.81;99415.16;4824654;29;20084;-92
2022/04/09 11:25:06;;;;;;;5.90;2.10;;;;;;;8.20;67.34;99425.53;4817605;29;20475;-92
2022/04/09 11:27:32;;;;;;;4.43;2.00;;;;;;;8.17;67.65;99415.16;4832019;29;20033;-92
2022/04/09 11:29:58;;;;;;;9.05;2.17;;;;;;;8.18;69.73;99422.16;4816585;29;20034;-92
2022/04/09 11:32:24;;;;;;;3.58;1.77;;;;;;;8.03;65.89;99441.28;4833772;29;20049;-92
2022/04/09 11:34:57;;;;;;;4.07;2.03;;;;;;;7.89;64.97;99438.03;4817444;29;20044;-92
2022/04/09 11:37:32;;;;;;;3.88;1.70;;;;;;;7.84;65.50;99432.25;4831776;29;20183;-92
2022/04/09 11:40:04;;;;;;;4.28;1.85;;;;;;;7.78;64.77;99423.97;4833852;29;20033;-93